createdAt,value
2023-01-10T00:01:41.671Z,41.83
2023-01-10T00:04:08.944Z,40.63
2023-01-10T00:06:36.198Z,44.05
2023-01-10T00:09:03.915Z,41.78
2023-01-10T00:11:50.196Z,40.58
2023-01-10T00:14:17.573Z,38.88
2023-01-10T00:16:44.825Z,36.78
2023-01-10T00:19:12.093Z,35.78
2023-01-10T00:21:39.881Z,43.28
2023-01-10T00:24:19.668Z,43.28
2023-01-10T00:26:51.379Z,43.53
2023-01-10T00:29:35.338Z,28.92
2023-01-10T00:32:02.755Z,34.78
2023-01-10T00:34:31.190Z,36.53
2023-01-10T00:36:58.393Z,22.98
2023-01-10T00:39:27.699Z,21.50
2023-01-10T00:42:13.633Z,25.35
2023-01-10T00:44:40.942Z,23.67
2023-01-10T00:47:08.226Z,22.33
2023-01-10T00:49:35.405Z,18.45
2023-01-10T00:52:02.728Z,21.63
2023-01-10T00:54:29.921Z,20.35
2023-01-10T00:56:57.291Z,18.83
2023-01-10T00:59:24.920Z,24.75
2023-01-10T01:01:52.665Z,24.63
2023-01-10T01:04:20.008Z,23.83
2023-01-10T01:06:49.040Z,26.85
2023-01-10T01:09:16.804Z,27.08
2023-01-10T01:11:44.012Z,25.83
2023-01-10T01:14:11.365Z,26.80
2023-01-10T01:16:38.635Z,26.85
2023-01-10T01:19:05.946Z,28.90
2023-01-10T01:21:33.972Z,19.75
2023-01-10T01:24:01.273Z,22.75
2023-01-10T01:26:28.633Z,19.65
2023-01-10T01:28:56.327Z,17.27
2023-01-10T01:31:23.631Z,17.92
2023-01-10T01:33:51.782Z,14.40
2023-01-10T01:36:20.148Z,15.52
2023-01-10T01:38:47.399Z,14.77
2023-01-10T01:41:33.360Z,17.67
2023-01-10T01:44:10.641Z,12.93
2023-01-10T01:46:39.410Z,11.20
2023-01-10T01:49:15.574Z,19.05
2023-01-10T01:51:45.916Z,14.32
2023-01-10T01:54:14.372Z,13.65
2023-01-10T01:56:55.995Z,11.88
2023-01-10T01:59:34.018Z,15.15
2023-01-10T02:02:14.775Z,12.82
2023-01-10T02:05:12.785Z,9.23
2023-01-10T02:07:45.613Z,13.70
2023-01-10T02:10:30.218Z,11.98
2023-01-10T02:13:04.001Z,12.07
2023-01-10T02:15:31.536Z,15.57
2023-01-10T02:18:02.339Z,13.68
2023-01-10T02:20:54.000Z,17.88
2023-01-10T02:24:06.784Z,14.10
2023-01-10T02:26:55.785Z,18.27
2023-01-10T02:29:44.718Z,16.27
2023-01-10T02:32:42.136Z,16.60
2023-01-10T02:35:37.729Z,18.00
2023-01-10T02:38:32.239Z,17.67
2023-01-10T02:41:33.926Z,15.13
2023-01-10T02:44:11.216Z,19.15
2023-01-10T02:46:39.796Z,13.50
2023-01-10T02:49:07.205Z,13.75
2023-01-10T02:51:34.614Z,13.10
2023-01-10T02:54:14.849Z,12.93
2023-01-10T02:57:47.933Z,14.85
2023-01-10T03:00:43.721Z,10.25
2023-01-10T03:03:38.449Z,7.85
2023-01-10T03:06:33.645Z,6.70
2023-01-10T03:09:31.560Z,7.15
2023-01-10T03:12:37.934Z,4.93
2023-01-10T03:15:08.590Z,7.38
2023-01-10T03:17:39.150Z,4.65
2023-01-10T03:20:08.989Z,8.40
2023-01-10T03:22:39.751Z,7.60
2023-01-10T03:28:03.835Z,6.72
2023-01-10T03:31:10.858Z,5.35
2023-01-10T03:33:38.707Z,8.45
2023-01-10T03:36:31.254Z,6.13
2023-01-10T03:39:25.197Z,6.15
2023-01-10T03:42:50.479Z,6.40
2023-01-10T03:45:26.990Z,7.93
2023-01-10T03:47:58.486Z,7.45
2023-01-10T03:50:28.239Z,6.78
2023-01-10T03:52:57.014Z,8.20
2023-01-10T03:55:28.900Z,6.68
2023-01-10T03:57:56.267Z,11.45
2023-01-10T04:00:24.493Z,7.28
2023-01-10T04:02:51.819Z,8.13
2023-01-10T04:05:19.148Z,11.35
2023-01-10T04:07:47.834Z,9.75
2023-01-10T04:10:15.650Z,8.88
2023-01-10T04:12:43.273Z,11.65
2023-01-10T04:15:10.940Z,9.88
2023-01-10T04:17:38.159Z,7.10
2023-01-10T04:20:06.159Z,6.18
2023-01-10T04:22:33.380Z,6.82
2023-01-10T04:25:00.556Z,7.80
2023-01-10T04:27:27.750Z,9.27
2023-01-10T04:29:55.085Z,7.05
2023-01-10T04:32:22.289Z,10.10
2023-01-10T04:34:49.728Z,12.52
2023-01-10T04:37:16.928Z,11.73
2023-01-10T04:39:44.352Z,10.85
2023-01-10T04:42:11.706Z,15.40
2023-01-10T04:44:38.962Z,11.35
2023-01-10T04:47:06.223Z,12.63
2023-01-10T04:49:33.337Z,13.05
2023-01-10T04:52:00.744Z,8.55
2023-01-10T04:54:27.989Z,13.68
2023-01-10T04:56:55.248Z,12.93
2023-01-10T04:59:22.615Z,10.90
2023-01-10T05:01:50.043Z,13.13
2023-01-10T05:04:18.106Z,11.68
2023-01-10T05:06:46.678Z,12.90
2023-01-10T05:09:13.988Z,14.35
2023-01-10T05:11:41.495Z,19.48
2023-01-10T05:14:09.163Z,12.80
2023-01-10T05:16:36.697Z,9.85
2023-01-10T05:19:04.259Z,13.27
2023-01-10T05:21:31.505Z,9.38
2023-01-10T05:23:58.678Z,11.88
2023-01-10T05:26:25.984Z,14.38
2023-01-10T05:28:53.171Z,10.52
2023-01-10T05:31:20.836Z,10.00
2023-01-10T05:33:50.575Z,9.20
2023-01-10T05:36:19.212Z,9.57
2023-01-10T05:38:47.041Z,10.05
2023-01-10T05:41:14.480Z,9.48
2023-01-10T05:43:41.733Z,9.40
2023-01-10T05:46:09.103Z,7.80
2023-01-10T05:48:36.774Z,10.07
2023-01-10T05:51:04.607Z,10.88
2023-01-10T05:53:31.847Z,16.45
2023-01-10T05:56:02.417Z,18.50
2023-01-10T05:58:30.194Z,16.80
2023-01-10T06:00:58.487Z,23.63
2023-01-10T06:03:26.715Z,20.77
2023-01-10T06:05:55.869Z,23.25
2023-01-10T06:08:24.237Z,22.63
2023-01-10T06:10:52.283Z,20.95
2023-01-10T06:13:19.705Z,27.48
2023-01-10T06:15:47.611Z,24.33
2023-01-10T06:18:15.243Z,24.98
2023-01-10T06:20:44.195Z,17.58
2023-01-10T06:23:11.489Z,21.73
2023-01-10T06:25:41.735Z,21.33
2023-01-10T06:28:11.517Z,17.92
2023-01-10T06:30:42.026Z,18.83
2023-01-10T06:33:10.834Z,22.52
2023-01-10T06:35:38.199Z,18.20
2023-01-10T06:38:05.397Z,18.05
2023-01-10T06:40:32.744Z,16.45
2023-01-10T06:43:00.341Z,13.50
2023-01-10T06:45:27.693Z,14.88
2023-01-10T06:47:54.895Z,11.57
2023-01-10T06:50:22.648Z,12.23
2023-01-10T06:53:01.635Z,9.90
2023-01-10T06:55:30.965Z,12.43
2023-01-10T06:58:03.720Z,12.88
2023-01-10T07:00:32.505Z,10.35
2023-01-10T07:03:02.109Z,12.45
2023-01-10T07:05:30.799Z,12.20
2023-01-10T07:07:59.021Z,12.75
2023-01-10T07:10:26.951Z,14.18
2023-01-10T07:12:58.742Z,13.05
2023-01-10T07:15:27.713Z,13.55
2023-01-10T07:17:58.649Z,14.27
2023-01-10T07:20:27.219Z,11.98
2023-01-10T07:23:01.129Z,10.90
2023-01-10T07:25:30.584Z,11.60
2023-01-10T07:27:58.440Z,12.25
2023-01-10T07:30:26.202Z,14.80
2023-01-10T07:32:58.220Z,12.80
2023-01-10T07:35:26.210Z,14.80
2023-01-10T07:37:53.497Z,16.67
2023-01-10T07:40:20.755Z,14.65
2023-01-10T07:42:48.060Z,16.80
2023-01-10T07:45:15.447Z,17.85
2023-01-10T07:47:42.837Z,18.65
2023-01-10T07:50:10.801Z,21.17
2023-01-10T07:52:38.555Z,23.45
2023-01-10T07:55:06.605Z,18.83
2023-01-10T07:57:33.840Z,20.65
2023-01-10T08:00:01.141Z,17.33
2023-01-10T08:02:28.454Z,19.83
2023-01-10T08:04:55.757Z,23.55
2023-01-10T08:07:23.125Z,17.75
2023-01-10T08:09:50.377Z,21.02
2023-01-10T08:12:17.593Z,21.58
2023-01-10T08:14:44.897Z,25.60
2023-01-10T08:17:12.316Z,21.75
2023-01-10T08:19:39.578Z,21.67
2023-01-10T08:22:06.797Z,24.05
2023-01-10T08:24:34.048Z,22.75
2023-01-10T08:27:02.537Z,25.05
2023-01-10T08:29:30.207Z,21.27
2023-01-10T08:31:57.511Z,19.83
2023-01-10T08:34:25.951Z,23.13
2023-01-10T08:36:54.922Z,21.15
2023-01-10T08:39:22.773Z,24.08
2023-01-10T08:41:50.300Z,26.73
2023-01-10T08:44:17.605Z,23.65
2023-01-10T08:46:45.757Z,22.15
2023-01-10T08:49:13.087Z,23.23
2023-01-10T08:51:40.467Z,22.15
2023-01-10T08:54:07.878Z,23.40
2023-01-10T08:56:37.384Z,23.58
2023-01-10T08:59:04.599Z,17.48
2023-01-10T09:01:32.007Z,20.42
2023-01-10T09:03:59.872Z,19.15
2023-01-10T09:06:27.432Z,20.98
2023-01-10T09:08:54.632Z,20.90
2023-01-10T09:11:21.835Z,24.15
2023-01-10T09:13:52.207Z,22.70
2023-01-10T09:16:19.527Z,21.30
2023-01-10T09:18:47.182Z,25.00
2023-01-10T09:21:14.539Z,22.55
2023-01-10T09:23:43.615Z,25.45
2023-01-10T09:26:10.976Z,23.15
2023-01-10T09:28:38.158Z,21.73
2023-01-10T09:31:08.826Z,15.20
2023-01-10T09:36:15.759Z,15.98
2023-01-10T09:38:44.047Z,15.27
2023-01-10T09:41:55.458Z,14.95
2023-01-10T09:45:21.144Z,19.65
2023-01-10T09:48:53.954Z,19.08
2023-01-10T09:51:49.134Z,14.38
2023-01-10T09:54:31.858Z,17.90
2023-01-10T09:57:01.312Z,21.08
2023-01-10T09:59:43.055Z,22.55
2023-01-10T10:02:36.787Z,18.67
2023-01-10T10:05:18.937Z,15.65
2023-01-10T10:07:52.342Z,18.80
2023-01-10T10:10:38.506Z,18.45
2023-01-10T10:13:27.561Z,17.70
2023-01-10T10:16:38.860Z,17.25
2023-01-10T10:19:24.460Z,13.10
2023-01-10T10:22:19.052Z,16.02
2023-01-10T10:25:09.025Z,16.08
2023-01-10T10:28:02.326Z,16.83
2023-01-10T10:30:47.628Z,15.02
2023-01-10T10:33:38.293Z,20.48
2023-01-10T10:36:30.717Z,19.92
2023-01-10T10:39:01.388Z,19.80
2023-01-10T10:41:38.359Z,21.67
2023-01-10T10:44:37.250Z,21.15
2023-01-10T10:47:21.826Z,16.20
2023-01-10T10:50:21.415Z,19.00
2023-01-10T10:52:49.015Z,19.38
2023-01-10T10:55:29.332Z,19.83
2023-01-10T10:58:00.578Z,18.92
2023-01-10T11:00:29.760Z,16.58
2023-01-10T11:03:26.244Z,18.33
2023-01-10T11:05:53.907Z,17.27
2023-01-10T11:08:22.983Z,21.98
2023-01-10T11:10:57.666Z,20.30
2023-01-10T11:13:34.112Z,19.98
2023-01-10T11:16:05.569Z,20.20
2023-01-10T11:18:34.082Z,22.70
2023-01-10T11:21:05.503Z,22.65
2023-01-10T11:24:05.617Z,23.45
2023-01-10T11:26:40.338Z,19.85
2023-01-10T11:29:16.633Z,17.40
2023-01-10T11:31:45.384Z,18.35
2023-01-10T11:34:24.934Z,19.70
2023-01-10T11:37:01.907Z,17.67
2023-01-10T11:39:31.584Z,18.70
2023-01-10T11:42:31.061Z,17.60
2023-01-10T11:45:18.186Z,15.10
2023-01-10T11:48:34.245Z,15.50
2023-01-10T11:51:29.691Z,18.10
2023-01-10T11:54:06.819Z,14.57
2023-01-10T11:56:40.048Z,13.85
2023-01-10T11:59:18.506Z,14.25
2023-01-10T12:01:54.133Z,17.75
2023-01-10T12:04:23.201Z,17.20
2023-01-10T12:06:54.902Z,16.52
2023-01-10T12:09:44.527Z,14.80
2023-01-10T12:12:28.769Z,11.65
2023-01-10T12:14:58.955Z,11.52
2023-01-10T12:17:36.693Z,10.23
2023-01-10T12:20:13.008Z,7.38
2023-01-10T12:22:47.521Z,6.93
2023-01-10T12:25:26.058Z,8.43
2023-01-10T12:27:56.893Z,9.63
2023-01-10T12:33:23.157Z,9.10
2023-01-10T12:36:21.086Z,10.90
2023-01-10T12:39:08.086Z,9.15
2023-01-10T12:42:00.589Z,9.88
2023-01-10T12:44:45.890Z,10.32
2023-01-10T12:47:25.427Z,9.90
2023-01-10T12:50:21.412Z,11.02
2023-01-10T12:53:13.480Z,11.07
2023-01-10T12:55:45.547Z,13.00
2023-01-10T12:58:44.121Z,11.27
2023-01-10T13:01:18.141Z,13.32
2023-01-10T13:03:49.755Z,12.40
2023-01-10T13:06:36.030Z,12.32
2023-01-10T13:09:20.280Z,11.05
2023-01-10T13:11:58.959Z,13.35
2023-01-10T13:14:37.765Z,11.55
2023-01-10T13:17:33.858Z,15.10
2023-01-10T13:21:14.767Z,12.70
2023-01-10T13:23:52.141Z,13.90
2023-01-10T13:26:19.772Z,14.75
2023-01-10T13:29:01.350Z,19.50
2023-01-10T13:31:34.275Z,16.48
2023-01-10T13:34:06.209Z,20.02
2023-01-10T13:36:40.949Z,18.67
2023-01-10T13:39:36.749Z,23.00
2023-01-10T13:42:22.059Z,23.10
2023-01-10T13:45:01.565Z,22.00
2023-01-10T13:47:40.713Z,25.60
2023-01-10T13:50:51.237Z,22.33
2023-01-10T13:53:38.349Z,27.25
2023-01-10T13:56:28.255Z,26.45
2023-01-10T13:59:14.242Z,22.97
2023-01-10T14:02:01.309Z,24.58
2023-01-10T14:04:56.418Z,24.80
2023-01-10T14:07:46.271Z,26.48
2023-01-10T14:10:32.536Z,24.27
2023-01-10T14:13:22.636Z,29.13
2023-01-10T14:15:50.160Z,27.38
2023-01-10T14:18:39.429Z,24.00
2023-01-10T14:21:21.965Z,31.75
2023-01-10T14:23:53.359Z,26.63
2023-01-10T14:26:39.006Z,32.63
2023-01-10T14:29:12.903Z,28.45
2023-01-10T14:31:47.278Z,33.20
2023-01-10T14:34:30.937Z,32.58
2023-01-10T14:36:59.929Z,32.05
2023-01-10T14:39:29.572Z,31.08
2023-01-10T14:42:01.670Z,34.25
2023-01-10T14:44:42.673Z,35.22
2023-01-10T14:47:34.942Z,36.25
2023-01-10T14:50:06.244Z,60.47
2023-01-10T14:52:33.933Z,66.63
2023-01-10T14:55:16.695Z,38.72
2023-01-10T14:57:57.918Z,46.30
2023-01-10T15:00:28.161Z,131.40
2023-01-10T15:02:56.169Z,43.85
2023-01-10T15:05:26.948Z,44.63
2023-01-10T15:07:55.706Z,37.92
2023-01-10T15:10:32.956Z,44.53
2023-01-10T15:13:05.646Z,42.90
2023-01-10T15:15:38.995Z,33.40
2023-01-10T15:18:34.113Z,36.65
2023-01-10T15:21:02.287Z,45.67
2023-01-10T15:23:38.993Z,35.40
2023-01-10T15:26:27.852Z,34.03
2023-01-10T15:29:23.524Z,31.38
2023-01-10T15:31:57.420Z,38.00
2023-01-10T15:34:30.155Z,28.98
2023-01-10T15:37:01.877Z,34.08
2023-01-10T15:39:40.825Z,33.28
2023-01-10T15:42:11.693Z,47.97
2023-01-10T15:47:35.146Z,37.70
2023-01-10T15:50:17.845Z,49.35
2023-01-10T15:53:14.463Z,42.45
2023-01-10T15:55:55.758Z,69.90
2023-01-10T15:58:38.240Z,33.35
2023-01-10T16:01:06.034Z,43.53
2023-01-10T16:03:44.043Z,46.88
2023-01-10T16:06:31.103Z,32.85
2023-01-10T16:09:03.364Z,34.53
2023-01-10T16:12:09.260Z,32.38
2023-01-10T16:14:37.923Z,41.28
2023-01-10T16:17:07.273Z,35.53
2023-01-10T16:19:34.792Z,46.83
2023-01-10T16:22:02.311Z,38.15
2023-01-10T16:24:34.238Z,42.92
2023-01-10T16:27:06.211Z,42.63
2023-01-10T16:29:34.300Z,38.53
2023-01-10T16:32:01.617Z,40.38
2023-01-10T16:34:28.989Z,38.10
2023-01-10T16:36:56.264Z,37.13
2023-01-10T16:39:24.020Z,43.35
2023-01-10T16:42:09.941Z,40.75
2023-01-10T16:44:37.219Z,38.63
2023-01-10T16:47:06.935Z,41.28
2023-01-10T16:49:34.515Z,42.47
2023-01-10T16:52:03.166Z,34.63
2023-01-10T16:54:31.155Z,41.22
2023-01-10T16:56:58.406Z,38.10
2023-01-10T16:59:25.884Z,42.20
2023-01-10T17:01:57.326Z,40.05
2023-01-10T17:04:30.102Z,35.83
2023-01-10T17:06:57.887Z,27.52
2023-01-10T17:09:31.174Z,31.77
2023-01-10T17:12:05.903Z,28.42
2023-01-10T17:14:36.844Z,28.70
2023-01-10T17:17:05.360Z,28.52
2023-01-10T17:19:32.868Z,29.00
2023-01-10T17:22:00.574Z,32.55
2023-01-10T17:24:29.845Z,35.65
2023-01-10T17:26:57.765Z,36.47
2023-01-10T17:29:25.311Z,31.45
2023-01-10T17:31:52.727Z,34.40
2023-01-10T17:34:20.447Z,34.28
2023-01-10T17:36:48.057Z,36.47
2023-01-10T17:39:15.588Z,39.55
2023-01-10T17:41:43.704Z,32.85
2023-01-10T17:44:11.180Z,37.72
2023-01-10T17:46:39.944Z,35.47
2023-01-10T17:49:07.635Z,36.78
2023-01-10T17:51:35.404Z,34.70
2023-01-10T17:54:02.804Z,35.85
2023-01-10T17:56:30.585Z,31.65
2023-01-10T17:58:57.958Z,30.52
2023-01-10T18:01:26.258Z,33.70
2023-01-10T18:03:54.545Z,35.28
2023-01-10T18:06:24.511Z,28.63
2023-01-10T18:08:53.322Z,32.92
2023-01-10T18:11:22.855Z,35.53
2023-01-10T18:13:50.448Z,30.58
2023-01-10T18:16:17.804Z,37.60
2023-01-10T18:18:45.286Z,35.47
2023-01-10T18:21:17.827Z,36.35
2023-01-10T18:23:46.922Z,36.60
2023-01-10T18:26:14.734Z,33.42
2023-01-10T18:28:44.579Z,36.60
2023-01-10T18:31:14.180Z,32.77
2023-01-10T18:33:41.720Z,31.13
2023-01-10T18:36:18.288Z,30.92
2023-01-10T18:38:46.430Z,34.55
2023-01-10T18:41:15.346Z,33.55
2023-01-10T18:43:42.633Z,45.08
2023-01-10T18:46:20.294Z,43.08
2023-01-10T18:48:50.220Z,43.25
2023-01-10T18:51:19.273Z,40.60
2023-01-10T18:53:47.707Z,42.92
2023-01-10T18:56:16.195Z,45.75
2023-01-10T18:58:43.481Z,46.08
2023-01-10T19:01:18.278Z,53.65
2023-01-10T19:03:47.004Z,47.88
2023-01-10T19:06:17.286Z,48.50
2023-01-10T19:08:46.556Z,51.45
2023-01-10T19:11:16.257Z,52.05
2023-01-10T19:13:46.098Z,51.05
2023-01-10T19:16:19.324Z,53.83
2023-01-10T19:18:59.473Z,57.38
2023-01-10T19:21:30.353Z,51.28
2023-01-10T19:28:56.013Z,44.03
2023-01-10T19:31:27.325Z,46.42
2023-01-10T19:33:58.011Z,44.88
2023-01-10T19:36:26.607Z,41.47
2023-01-10T19:38:59.052Z,42.53
2023-01-10T19:41:28.734Z,45.03
2023-01-10T19:44:01.704Z,49.25
2023-01-10T19:46:34.173Z,45.85
2023-01-10T19:49:03.390Z,50.10
2023-01-10T19:51:30.771Z,40.05
2023-01-10T19:53:58.091Z,31.73
2023-01-10T19:56:25.551Z,35.45
2023-01-10T19:58:54.943Z,39.35
2023-01-10T20:01:26.098Z,43.10
2023-01-10T20:03:57.184Z,36.78
2023-01-10T20:06:26.948Z,37.72
2023-01-10T20:08:55.260Z,34.78
2023-01-10T20:11:25.474Z,36.08
2023-01-10T20:13:53.891Z,33.63
2023-01-10T20:16:23.653Z,30.13
2023-01-10T20:18:52.099Z,33.70
2023-01-10T20:21:19.944Z,29.88
2023-01-10T20:23:47.865Z,29.88
2023-01-10T20:26:22.426Z,39.25
2023-01-10T20:28:50.837Z,32.25
2023-01-10T20:31:22.935Z,26.48
2023-01-10T20:33:51.158Z,34.85
2023-01-10T20:36:23.831Z,24.05
2023-01-10T20:38:51.931Z,30.52
2023-01-10T20:41:25.852Z,33.08
2023-01-10T20:43:56.311Z,30.25
2023-01-10T20:46:27.387Z,25.52
2023-01-10T20:48:56.755Z,26.63
2023-01-10T20:51:28.351Z,26.08
2023-01-10T20:53:56.328Z,26.27
2023-01-10T20:56:27.638Z,25.48
2023-01-10T20:58:56.006Z,28.83
2023-01-10T21:01:34.068Z,25.00
2023-01-10T21:04:05.874Z,31.35
2023-01-10T21:06:34.897Z,32.58
2023-01-10T21:09:03.992Z,27.63
2023-01-10T21:11:31.298Z,31.90
2023-01-10T21:13:59.067Z,33.38
2023-01-10T21:16:26.707Z,31.75
2023-01-10T21:18:54.421Z,29.23
2023-01-10T21:21:25.225Z,27.75
2023-01-10T21:23:55.060Z,29.10
2023-01-10T21:26:22.780Z,33.13
2023-01-10T21:28:50.321Z,22.38
2023-01-10T21:31:22.192Z,33.47
2023-01-10T21:33:50.137Z,29.13
2023-01-10T21:36:17.985Z,32.10
2023-01-10T21:38:45.729Z,26.42
2023-01-10T21:41:37.567Z,25.95
2023-01-10T21:44:06.418Z,25.85
2023-01-10T21:46:34.367Z,25.73
2023-01-10T21:49:02.858Z,26.92
2023-01-10T21:51:30.342Z,31.08
2023-01-10T21:53:58.028Z,21.50
2023-01-10T21:56:25.768Z,27.10
2023-01-10T21:58:52.990Z,23.15
2023-01-10T22:01:20.511Z,23.17
2023-01-10T22:03:47.964Z,24.85
2023-01-10T22:06:15.467Z,20.00
2023-01-10T22:08:42.763Z,25.95
2023-01-10T22:11:11.149Z,24.55
2023-01-10T22:13:39.325Z,24.92
2023-01-10T22:16:07.268Z,26.40
2023-01-10T22:18:34.548Z,19.65
2023-01-10T22:21:01.944Z,25.38
2023-01-10T22:23:30.967Z,24.95
2023-01-10T22:26:07.076Z,35.70
2023-01-10T22:28:34.515Z,25.67
2023-01-10T22:31:02.250Z,27.48
2023-01-10T22:33:37.886Z,34.75
2023-01-10T22:36:12.542Z,33.25
2023-01-10T22:38:41.658Z,28.52
2023-01-10T22:41:15.569Z,28.90
2023-01-10T22:43:44.534Z,31.70
2023-01-10T22:46:15.845Z,33.33
2023-01-10T22:48:44.033Z,23.48
2023-01-10T22:51:12.860Z,28.60
2023-01-10T22:53:40.152Z,27.75
2023-01-10T22:56:13.055Z,26.33
2023-01-10T22:58:42.856Z,26.70
2023-01-10T23:01:10.208Z,27.20
2023-01-10T23:03:37.704Z,25.83
2023-01-10T23:06:05.307Z,25.02
2023-01-10T23:08:34.490Z,27.77
2023-01-10T23:11:02.059Z,22.88
2023-01-10T23:13:30.969Z,25.23
2023-01-10T23:16:06.446Z,31.35
2023-01-10T23:18:35.092Z,22.25
2023-01-10T23:21:03.163Z,28.05
2023-01-10T23:23:30.540Z,28.75
2023-01-10T23:26:02.853Z,23.38
2023-01-10T23:28:49.272Z,25.58
2023-01-10T23:31:22.848Z,30.92
2023-01-10T23:33:51.379Z,36.65
2023-01-10T23:36:22.105Z,31.55
2023-01-10T23:38:50.065Z,28.65
2023-01-10T23:41:21.242Z,28.98
2023-01-10T23:43:50.180Z,35.03
2023-01-10T23:46:17.958Z,32.85
2023-01-10T23:48:46.573Z,34.53
2023-01-10T23:51:14.750Z,32.90
2023-01-10T23:53:42.289Z,31.17
2023-01-10T23:56:12.997Z,30.00
2023-01-10T23:58:41.034Z,33.28
